Time;durP1;ratioP1;P1;durP2;ratioP2;P2;SDS_P1;SDS_P2;PMS_P1;PMS_P2;Temp;Humidity;BMP_temperature;BMP_pressure;BME280_temperature;BME280_humidity;BME280_pressure;Samples;Min_cycle;Max_cycle;Signal;HPM_P1;HPM_P2
2022/01/05 00:02:22;;;;;;;1999.90;999.90;;;5.80;99.90;;;;;;5018936;28;20448;-71
2022/01/05 00:04:49;;;;;;;1999.90;999.90;;;5.80;99.90;;;;;;5017474;28;20468;-70
2022/01/05 00:07:16;;;;;;;1999.90;999.90;;;5.80;99.90;;;;;;5016657;28;20498;-71
2022/01/05 00:09:43;;;;;;;1999.90;999.90;;;5.70;99.90;;;;;;5016822;28;20456;-71
2022/01/05 00:12:12;;;;;;;1999.90;999.90;;;5.60;99.90;;;;;;5019412;28;20444;-71
2022/01/05 00:14:39;;;;;;;1999.90;999.90;;;5.60;99.90;;;;;;5019376;28;20468;-71
2022/01/05 00:17:05;;;;;;;1999.90;999.90;;;5.60;99.90;;;;;;5019369;28;20476;-71
2022/01/05 00:19:34;;;;;;;1999.90;999.90;;;5.60;99.90;;;;;;5019597;28;21144;-70
2022/01/05 00:22:01;;;;;;;1999.90;999.90;;;5.60;99.90;;;;;;5019311;28;20455;-71
2022/01/05 00:24:27;;;;;;;1999.90;999.90;;;5.60;99.90;;;;;;5020001;28;20479;-71
2022/01/05 00:26:54;;;;;;;1999.90;999.90;;;5.70;99.90;;;;;;5019619;28;20487;-71
2022/01/05 00:29:22;;;;;;;1999.90;999.90;;;5.70;99.90;;;;;;5019498;28;20460;-71
2022/01/05 00:31:49;;;;;;;1999.90;999.90;;;5.70;99.90;;;;;;5019292;28;20448;-71
2022/01/05 00:34:16;;;;;;;1999.90;999.90;;;5.70;99.90;;;;;;5019983;28;20456;-71
2022/01/05 00:36:43;;;;;;;1999.90;999.90;;;5.90;99.90;;;;;;5019400;28;20476;-71
2022/01/05 00:39:10;;;;;;;1999.90;999.90;;;5.70;99.90;;;;;;5020185;28;20455;-71
2022/01/05 00:41:37;;;;;;;1999.90;999.90;;;5.70;99.90;;;;;;5019319;28;20459;-71
2022/01/05 00:44:03;;;;;;;1999.90;999.90;;;5.60;99.90;;;;;;5019392;28;20464;-71
2022/01/05 00:46:31;;;;;;;1999.90;999.90;;;5.60;99.90;;;;;;5018943;28;20449;-71
2022/01/05 00:48:58;;;;;;;1999.90;999.90;;;5.60;99.90;;;;;;5019347;28;20459;-71
2022/01/05 00:51:25;;;;;;;1999.90;999.90;;;5.60;99.90;;;;;;5018967;28;20459;-71
2022/01/05 00:53:52;;;;;;;1999.90;999.90;;;5.80;99.90;;;;;;5018943;28;21049;-71
2022/01/05 00:56:18;;;;;;;1999.90;999.90;;;5.60;99.90;;;;;;5018944;28;20480;-71
2022/01/05 00:58:45;;;;;;;1999.90;999.90;;;5.50;99.90;;;;;;5018537;28;20831;-71
2022/01/05 01:01:12;;;;;;;1999.90;999.90;;;5.50;99.90;;;;;;5018285;28;20447;-72
2022/01/05 01:03:40;;;;;;;1999.90;999.90;;;5.60;99.90;;;;;;5016499;28;20455;-71
2022/01/05 01:06:07;;;;;;;1999.90;999.90;;;5.60;99.90;;;;;;5016988;28;20476;-71
2022/01/05 01:08:34;;;;;;;1999.90;999.90;;;5.40;99.90;;;;;;5016823;28;20444;-71
2022/01/05 01:11:00;;;;;;;1999.90;999.90;;;5.50;99.90;;;;;;5015973;28;20452;-72
2022/01/05 01:13:27;;;;;;;1999.90;999.90;;;5.50;99.90;;;;;;5014843;28;20464;-71
2022/01/05 01:15:54;;;;;;;1999.90;999.90;;;5.40;99.90;;;;;;5016287;28;20453;-71
2022/01/05 01:18:21;;;;;;;1999.90;999.90;;;5.50;99.90;;;;;;5015916;28;20483;-71
2022/01/05 01:20:49;;;;;;;1999.90;999.90;;;5.40;99.90;;;;;;5017489;28;20455;-71
2022/01/05 01:23:20;;;;;;;1999.90;999.90;;;5.40;99.90;;;;;;5014865;28;20440;-71
2022/01/05 01:25:47;;;;;;;1999.90;999.90;;;5.40;99.90;;;;;;5014028;28;20432;-71
2022/01/05 01:28:14;;;;;;;1999.90;999.90;;;5.30;99.90;;;;;;5013355;28;20474;-71
2022/01/05 01:30:41;;;;;;;1999.90;999.90;;;5.30;99.90;;;;;;5014384;28;20444;-71
2022/01/05 01:33:08;;;;;;;1999.90;999.90;;;5.20;99.90;;;;;;5016425;28;20444;-71
2022/01/05 01:35:35;;;;;;;1999.90;999.90;;;5.20;99.90;;;;;;5017314;28;20476;-71
2022/01/05 01:38:03;;;;;;;1999.90;999.90;;;5.20;99.90;;;;;;5015805;28;20484;-71
2022/01/05 01:40:30;;;;;;;1999.90;999.90;;;5.20;99.90;;;;;;5014017;28;20502;-71
2022/01/05 01:42:57;;;;;;;1999.90;999.90;;;5.10;99.90;;;;;;5014082;28;20444;-72
2022/01/05 01:45:24;;;;;;;1999.90;999.90;;;5.00;99.90;;;;;;5015107;28;20472;-71
2022/01/05 01:47:51;;;;;;;1999.90;999.90;;;5.00;99.90;;;;;;5013017;28;20460;-72
2022/01/05 01:50:18;;;;;;;1999.90;999.90;;;5.00;99.90;;;;;;5014468;28;20455;-71
2022/01/05 01:52:44;;;;;;;1999.90;999.90;;;5.00;99.90;;;;;;5015210;28;20510;-71
2022/01/05 01:55:13;;;;;;;1999.90;999.90;;;5.00;99.90;;;;;;5015676;28;20521;-71
2022/01/05 01:57:42;;;;;;;1999.90;999.90;;;5.10;99.90;;;;;;5016888;28;20490;-71
2022/01/05 02:00:10;;;;;;;1999.90;999.90;;;5.10;99.90;;;;;;5016277;28;20535;-71
2022/01/05 02:02:38;;;;;;;1999.90;999.90;;;5.00;99.90;;;;;;5016360;28;20471;-71
2022/01/05 02:05:05;;;;;;;1999.90;999.90;;;5.00;99.90;;;;;;5014880;28;21011;-72
2022/01/05 02:07:32;;;;;;;1999.90;999.90;;;5.00;99.90;;;;;;5013774;28;20440;-72
2022/01/05 02:09:58;;;;;;;1999.90;999.90;;;5.00;99.90;;;;;;5011722;28;21175;-71
2022/01/05 02:12:27;;;;;;;1999.90;999.90;;;4.90;99.90;;;;;;5012903;28;21462;-71
2022/01/05 02:14:55;;;;;;;1999.90;999.90;;;5.00;99.90;;;;;;5013195;28;20476;-72
2022/01/05 02:17:29;;;;;;;1999.90;999.90;;;5.00;99.90;;;;;;5012483;28;20514;-72
2022/01/05 02:19:56;;;;;;;1999.90;999.90;;;4.90;99.90;;;;;;5011792;28;20444;-71
2022/01/05 02:22:24;;;;;;;1999.90;999.90;;;4.80;99.90;;;;;;5012221;28;20534;-72
2022/01/05 02:24:50;;;;;;;1999.90;999.90;;;4.80;99.90;;;;;;5013136;28;20525;-71
2022/01/05 02:27:17;;;;;;;1999.90;999.90;;;4.80;99.90;;;;;;5013433;28;20440;-71
2022/01/05 02:29:45;;;;;;;1999.90;999.90;;;4.90;99.90;;;;;;5012301;28;20448;-71
2022/01/05 02:32:11;;;;;;;1999.90;999.90;;;4.80;99.90;;;;;;5011850;28;20880;-72
2022/01/05 02:34:38;;;;;;;1999.90;999.90;;;4.80;99.90;;;;;;5012572;28;20696;-71
2022/01/05 02:37:05;;;;;;;1999.90;999.90;;;4.90;99.90;;;;;;5012496;28;20466;-72
2022/01/05 02:39:33;;;;;;;1999.90;999.90;;;4.90;99.90;;;;;;5012454;28;20502;-71
2022/01/05 02:42:00;;;;;;;1999.90;999.90;;;4.90;99.90;;;;;;5012862;28;20522;-72
2022/01/05 02:44:27;;;;;;;1999.90;999.90;;;4.90;99.90;;;;;;5012451;28;20475;-71
2022/01/05 02:46:54;;;;;;;1999.90;999.90;;;4.90;99.90;;;;;;5013543;28;20932;-71
2022/01/05 02:49:20;;;;;;;1999.90;999.90;;;4.90;99.90;;;;;;5011889;28;20460;-71
2022/01/05 02:51:47;;;;;;;1999.90;999.90;;;4.90;99.90;;;;;;5011537;28;20956;-72
2022/01/05 02:54:14;;;;;;;1999.90;999.90;;;4.90;99.90;;;;;;5011862;28;20495;-72
2022/01/05 02:56:42;;;;;;;1999.90;999.90;;;4.90;99.90;;;;;;5014364;28;20448;-72
2022/01/05 02:59:08;;;;;;;1999.90;999.90;;;4.80;99.90;;;;;;5015853;28;20479;-72
2022/01/05 03:01:36;;;;;;;1999.90;999.90;;;4.80;99.90;;;;;;5015980;28;21013;-71
2022/01/05 03:04:05;;;;;;;1999.90;999.90;;;4.80;99.90;;;;;;5016091;28;20476;-71
2022/01/05 03:06:31;;;;;;;1999.90;999.90;;;4.70;99.90;;;;;;5015952;28;21015;-72
2022/01/05 03:08:58;;;;;;;1999.90;999.90;;;4.70;99.90;;;;;;5016282;28;20444;-72
2022/01/05 03:11:25;;;;;;;1999.90;999.90;;;4.70;99.90;;;;;;5015213;28;20505;-72
2022/01/05 03:13:53;;;;;;;1999.90;999.90;;;4.70;99.90;;;;;;5016513;28;20479;-71
2022/01/05 03:16:19;;;;;;;1999.90;999.90;;;4.70;99.90;;;;;;5016396;28;20451;-71
2022/01/05 03:18:46;;;;;;;1999.90;999.90;;;4.70;99.90;;;;;;5014929;28;20860;-72
2022/01/05 03:21:13;;;;;;;1999.90;999.90;;;4.70;99.90;;;;;;5015885;28;20502;-72
2022/01/05 03:23:39;;;;;;;1999.90;999.90;;;4.60;99.90;;;;;;5015689;28;20495;-71
2022/01/05 03:26:06;;;;;;;1999.90;999.90;;;4.60;99.90;;;;;;5016495;28;20456;-71
2022/01/05 03:28:33;;;;;;;1999.90;999.90;;;4.70;99.90;;;;;;5016283;28;20502;-72
2022/01/05 03:31:01;;;;;;;1999.90;999.90;;;4.70;99.90;;;;;;5016560;28;20502;-71
2022/01/05 03:33:27;;;;;;;1999.90;999.90;;;4.70;99.90;;;;;;5015685;28;20505;-71
2022/01/05 03:35:54;;;;;;;1999.90;999.90;;;4.70;99.90;;;;;;4996111;28;20472;-72
2022/01/05 03:38:21;;;;;;;1999.90;999.90;;;4.70;99.90;;;;;;4995420;28;21004;-72
2022/01/05 03:40:49;;;;;;;1999.90;999.90;;;4.70;99.90;;;;;;5014693;28;20455;-72
2022/01/05 03:43:15;;;;;;;1999.90;999.90;;;4.70;99.90;;;;;;5015505;28;20940;-71
2022/01/05 03:45:43;;;;;;;1999.90;999.90;;;4.60;99.90;;;;;;5014670;28;20471;-72
2022/01/05 03:48:14;;;;;;;1999.90;999.90;;;4.60;99.90;;;;;;5015135;28;20444;-72
2022/01/05 03:50:41;;;;;;;1999.90;999.90;;;4.70;99.90;;;;;;5015046;28;20448;-72
2022/01/05 03:53:10;;;;;;;1999.90;999.90;;;4.60;99.90;;;;;;5014828;28;20459;-72
2022/01/05 03:55:38;;;;;;;1999.90;999.90;;;4.60;99.90;;;;;;5014549;28;20562;-71
2022/01/05 03:58:05;;;;;;;1999.90;999.90;;;4.60;99.90;;;;;;5014467;28;20484;-72
2022/01/05 04:00:34;;;;;;;1999.90;999.90;;;4.50;99.90;;;;;;5014573;28;20506;-72
2022/01/05 04:03:01;;;;;;;1999.90;999.90;;;4.60;99.90;;;;;;5014904;28;20459;-71
2022/01/05 04:05:30;;;;;;;1999.90;999.90;;;4.60;99.90;;;;;;5015006;28;20467;-72
2022/01/05 04:07:56;;;;;;;1999.90;999.90;;;4.60;99.90;;;;;;5014433;28;20449;-71
2022/01/05 04:10:24;;;;;;;1999.90;999.90;;;4.60;99.90;;;;;;5013927;28;20448;-71
2022/01/05 04:12:50;;;;;;;1999.90;999.90;;;4.70;99.90;;;;;;5014435;28;20470;-72
2022/01/05 04:15:18;;;;;;;1999.90;999.90;;;4.70;99.90;;;;;;5014123;28;20464;-71
2022/01/05 04:17:45;;;;;;;1999.90;999.90;;;4.70;99.90;;;;;;5014374;28;20479;-72
2022/01/05 04:20:13;;;;;;;1999.90;999.90;;;4.70;99.90;;;;;;5014121;28;20518;-70
2022/01/05 04:22:42;;;;;;;1999.90;999.90;;;4.70;99.90;;;;;;5014412;28;20444;-71
2022/01/05 04:25:09;;;;;;;1999.90;999.90;;;4.70;99.90;;;;;;5013936;28;20468;-71
2022/01/05 04:27:36;;;;;;;1999.90;999.90;;;4.70;99.90;;;;;;5013965;28;20448;-72
2022/01/05 04:30:04;;;;;;;1999.90;999.90;;;4.60;99.90;;;;;;5013827;28;20518;-71
2022/01/05 04:32:30;;;;;;;1999.90;999.90;;;4.60;99.90;;;;;;5013866;28;20605;-72
2022/01/05 04:34:57;;;;;;;1999.90;999.90;;;4.60;99.90;;;;;;5013729;28;21073;-72
2022/01/05 04:37:24;;;;;;;1999.90;999.90;;;4.60;99.90;;;;;;5014164;28;21006;-71
2022/01/05 04:39:52;;;;;;;1999.90;999.90;;;4.60;99.90;;;;;;5013405;28;20495;-72
2022/01/05 04:42:19;;;;;;;1999.90;999.90;;;4.60;99.90;;;;;;5013614;28;20448;-72
2022/01/05 04:44:45;;;;;;;1999.90;999.90;;;4.60;99.90;;;;;;5013744;28;20475;-72
2022/01/05 04:47:13;;;;;;;1999.90;999.90;;;4.50;99.90;;;;;;5013982;28;20451;-72
2022/01/05 04:49:40;;;;;;;1999.90;999.90;;;4.50;99.90;;;;;;5013330;28;20538;-71
2022/01/05 04:52:07;;;;;;;1999.90;999.90;;;4.50;99.90;;;;;;5012144;28;20490;-71
2022/01/05 04:54:34;;;;;;;1999.90;999.90;;;4.50;99.90;;;;;;5011351;28;20468;-71
2022/01/05 04:57:02;;;;;;;1999.90;999.90;;;4.50;99.90;;;;;;5011835;28;20452;-71
2022/01/05 04:59:29;;;;;;;1999.90;999.90;;;4.50;99.90;;;;;;5011638;28;20472;-71
2022/01/05 05:01:56;;;;;;;1999.90;999.90;;;4.50;99.90;;;;;;5011971;28;20456;-72
2022/01/05 05:04:22;;;;;;;1999.90;999.90;;;4.50;99.90;;;;;;5012615;28;20480;-71
2022/01/05 05:06:50;;;;;;;1999.90;999.90;;;4.50;99.90;;;;;;5012327;28;20941;-71
2022/01/05 05:09:17;;;;;;;1999.90;999.90;;;4.40;99.90;;;;;;5012516;28;20480;-72
2022/01/05 05:11:43;;;;;;;1999.90;999.90;;;4.40;99.90;;;;;;5012352;28;20439;-71
2022/01/05 05:14:12;;;;;;;1999.90;999.90;;;4.40;99.90;;;;;;5012936;28;20476;-73
2022/01/05 05:16:38;;;;;;;1999.90;999.90;;;4.30;99.90;;;;;;5013324;28;20501;-71
2022/01/05 05:19:05;;;;;;;1999.90;999.90;;;4.40;99.90;;;;;;5012104;28;20550;-71
2022/01/05 05:21:32;;;;;;;1999.90;999.90;;;4.30;99.90;;;;;;5012964;28;20514;-72
2022/01/05 05:23:58;;;;;;;1999.90;999.90;;;4.30;99.90;;;;;;5012575;28;20471;-72
2022/01/05 05:26:25;;;;;;;1999.90;999.90;;;4.30;99.90;;;;;;5013378;28;20459;-71
2022/01/05 05:28:52;;;;;;;1999.90;999.90;;;4.30;99.90;;;;;;5012818;28;20452;-71
2022/01/05 05:31:20;;;;;;;1999.90;999.90;;;4.20;99.90;;;;;;5012844;28;20448;-71
2022/01/05 05:33:47;;;;;;;1999.90;999.90;;;4.20;99.90;;;;;;5012669;28;20476;-71
2022/01/05 05:36:13;;;;;;;1999.90;999.90;;;4.20;99.90;;;;;;5013189;28;20455;-71
2022/01/05 05:38:40;;;;;;;1999.90;999.90;;;4.20;99.90;;;;;;5012303;28;20472;-71
2022/01/05 05:41:07;;;;;;;1999.90;999.90;;;4.20;99.90;;;;;;5012778;28;20510;-71
2022/01/05 05:43:33;;;;;;;1999.90;999.90;;;4.30;99.90;;;;;;5012574;28;20984;-72
2022/01/05 05:46:00;;;;;;;1999.90;999.90;;;4.30;99.90;;;;;;5012574;28;20452;-71
2022/01/05 05:48:28;;;;;;;1999.90;999.90;;;4.30;99.90;;;;;;5012918;28;20456;-71
2022/01/05 05:50:55;;;;;;;1999.90;999.90;;;4.20;99.90;;;;;;5012651;28;20506;-71
2022/01/05 05:53:22;;;;;;;1999.90;999.90;;;4.20;99.90;;;;;;5012005;28;20960;-73
2022/01/05 05:55:49;;;;;;;1999.90;999.90;;;4.10;99.90;;;;;;5012566;28;20876;-71
2022/01/05 05:58:16;;;;;;;1999.90;999.90;;;4.10;99.90;;;;;;5012373;28;20539;-73
2022/01/05 06:00:43;;;;;;;1999.90;999.90;;;4.10;99.90;;;;;;5012307;28;20444;-70
2022/01/05 06:03:09;;;;;;;1999.90;999.90;;;4.10;99.90;;;;;;5012152;28;20452;-71
2022/01/05 06:05:38;;;;;;;1999.90;999.90;;;4.10;99.90;;;;;;5012103;28;21236;-71
2022/01/05 06:08:05;;;;;;;1999.90;999.90;;;4.00;99.90;;;;;;5012199;28;20460;-70
2022/01/05 06:10:31;;;;;;;1999.90;999.90;;;4.00;99.90;;;;;;5011592;28;20448;-71
2022/01/05 06:12:58;;;;;;;1999.90;999.90;;;3.90;99.90;;;;;;5012231;28;20491;-71
2022/01/05 06:15:25;;;;;;;1999.90;999.90;;;3.90;99.90;;;;;;5012310;28;20480;-71
2022/01/05 06:17:51;;;;;;;1999.90;999.90;;;3.80;99.90;;;;;;5012198;28;20451;-72
2022/01/05 06:20:18;;;;;;;1999.90;999.90;;;3.70;99.90;;;;;;5011937;28;20475;-71
2022/01/05 06:22:46;;;;;;;1999.90;999.90;;;3.70;99.90;;;;;;5012252;28;20444;-71
2022/01/05 06:25:14;;;;;;;1999.90;999.90;;;3.70;99.90;;;;;;5012269;28;20476;-71
2022/01/05 06:27:41;;;;;;;1999.90;999.90;;;3.70;99.90;;;;;;5012217;28;20448;-71
2022/01/05 06:30:09;;;;;;;1999.90;999.90;;;3.60;99.90;;;;;;5011816;28;20448;-71
2022/01/05 06:32:41;;;;;;;1999.90;999.90;;;3.60;99.90;;;;;;5011866;28;20535;-71
2022/01/05 06:35:08;;;;;;;1999.90;999.90;;;3.60;99.90;;;;;;5011192;28;20463;-71
2022/01/05 06:37:35;;;;;;;1999.90;999.90;;;3.60;99.90;;;;;;5012384;28;20502;-72
2022/01/05 06:40:04;;;;;;;1999.90;999.90;;;3.60;99.90;;;;;;5011816;28;20480;-71
2022/01/05 06:42:31;;;;;;;1999.90;999.90;;;3.50;99.90;;;;;;5010692;28;20506;-71
2022/01/05 06:44:57;;;;;;;1999.90;999.90;;;3.50;99.90;;;;;;5010444;28;20468;-74
2022/01/05 06:47:24;;;;;;;1999.90;999.90;;;3.50;99.90;;;;;;5011065;28;20456;-71
2022/01/05 06:49:51;;;;;;;1999.90;999.90;;;3.50;99.90;;;;;;5010612;28;20444;-71
2022/01/05 06:52:17;;;;;;;1999.90;999.90;;;3.50;99.90;;;;;;5010865;28;20458;-71
2022/01/05 06:54:44;;;;;;;1999.90;999.90;;;3.50;99.90;;;;;;5010580;28;20499;-73
2022/01/05 06:57:12;;;;;;;1999.90;999.90;;;3.50;99.90;;;;;;5011893;28;20448;-71
2022/01/05 06:59:39;;;;;;;1999.90;999.90;;;3.40;99.90;;;;;;5011434;28;20480;-71
2022/01/05 07:02:06;;;;;;;1999.90;999.90;;;3.40;99.90;;;;;;5011367;28;20531;-71
2022/01/05 07:04:33;;;;;;;1999.90;999.90;;;3.40;99.90;;;;;;5011617;28;20522;-72
2022/01/05 07:07:00;;;;;;;1999.90;999.90;;;3.40;99.90;;;;;;5011856;28;20451;-71
2022/01/05 07:09:26;;;;;;;1999.90;999.90;;;3.30;99.90;;;;;;5011756;28;20444;-70
2022/01/05 07:11:53;;;;;;;1999.90;999.90;;;3.30;99.90;;;;;;5011098;28;20448;-71
2022/01/05 07:14:23;;;;;;;1999.90;999.90;;;3.30;99.90;;;;;;5010895;28;21038;-72
2022/01/05 07:16:51;;;;;;;1999.90;999.90;;;3.30;99.90;;;;;;5011737;28;20441;-71
2022/01/05 07:19:19;;;;;;;1999.90;999.90;;;3.30;99.90;;;;;;5011303;28;20582;-73
2022/01/05 07:21:46;;;;;;;1999.90;999.90;;;3.30;99.90;;;;;;5011267;28;20489;-73
2022/01/05 07:24:16;;;;;;;1999.90;999.90;;;3.30;99.90;;;;;;5010922;28;20475;-71
2022/01/05 07:26:42;;;;;;;1999.90;999.90;;;3.30;99.90;;;;;;5011397;28;20462;-73
2022/01/05 07:29:09;;;;;;;1999.90;999.90;;;3.30;99.90;;;;;;5011662;28;20971;-71
2022/01/05 07:31:37;;;;;;;1999.90;999.90;;;3.30;99.90;;;;;;5011692;28;20452;-71
2022/01/05 07:34:04;;;;;;;1999.90;999.90;;;3.30;99.90;;;;;;5011780;28;20468;-71
2022/01/05 07:36:31;;;;;;;1999.90;999.90;;;3.30;99.90;;;;;;5011490;28;20506;-71
2022/01/05 07:38:59;;;;;;;1999.90;999.90;;;3.30;99.90;;;;;;5011343;28;20502;-71
2022/01/05 07:41:26;;;;;;;1999.90;999.90;;;3.30;99.90;;;;;;5012046;28;20968;-73
2022/01/05 07:43:53;;;;;;;1999.90;999.90;;;3.30;99.90;;;;;;5015002;28;20475;-71
2022/01/05 07:46:19;;;;;;;1999.90;999.90;;;3.30;99.90;;;;;;5015462;28;20501;-71
2022/01/05 07:48:47;;;;;;;1999.90;999.90;;;3.30;99.90;;;;;;5014557;28;20452;-73
2022/01/05 07:51:14;;;;;;;1999.90;999.90;;;3.30;99.90;;;;;;5014306;28;20448;-71
2022/01/05 07:53:41;;;;;;;1999.90;999.90;;;3.40;99.90;;;;;;5014346;28;20534;-69
2022/01/05 07:56:08;;;;;;;1999.90;999.90;;;3.40;99.90;;;;;;5014669;28;20526;-72
2022/01/05 07:58:35;;;;;;;1999.90;999.90;;;3.40;99.90;;;;;;5014836;28;20937;-72
2022/01/05 08:01:03;;;;;;;1999.90;999.90;;;3.30;99.90;;;;;;5014876;28;20471;-71
2022/01/05 08:03:33;;;;;;;1999.90;999.90;;;3.40;99.90;;;;;;5014590;28;20459;-71
2022/01/05 08:06:01;;;;;;;1999.90;999.90;;;3.40;99.90;;;;;;5015415;28;20541;-71
2022/01/05 08:08:28;;;;;;;1999.90;999.90;;;3.40;99.90;;;;;;5014743;28;21098;-70
2022/01/05 08:10:54;;;;;;;1999.90;999.90;;;3.40;99.90;;;;;;5013723;28;20455;-71
2022/01/05 08:13:21;;;;;;;1999.90;999.90;;;3.50;99.90;;;;;;4994791;28;20461;-71
2022/01/05 08:15:48;;;;;;;1999.90;999.90;;;3.50;99.90;;;;;;5008688;28;20467;-71
2022/01/05 08:18:14;;;;;;;1999.90;999.90;;;3.50;99.90;;;;;;5014504;28;20507;-71
2022/01/05 08:20:41;;;;;;;1999.90;999.90;;;3.60;99.90;;;;;;5013948;28;20558;-73
2022/01/05 08:23:09;;;;;;;1999.90;999.90;;;3.60;99.90;;;;;;5013972;28;20452;-72
2022/01/05 08:25:36;;;;;;;1999.90;999.90;;;3.70;99.90;;;;;;5013871;28;20477;-72
2022/01/05 08:28:03;;;;;;;1999.90;999.90;;;3.70;99.90;;;;;;5013994;28;20444;-72
2022/01/05 08:30:33;;;;;;;1999.90;999.90;;;3.80;99.90;;;;;;5013486;28;20960;-71
2022/01/05 08:33:01;;;;;;;1999.90;999.90;;;3.80;99.90;;;;;;5014034;28;20444;-72
2022/01/05 08:35:28;;;;;;;1999.90;999.90;;;3.80;99.90;;;;;;5014249;28;20495;-71
2022/01/05 08:37:54;;;;;;;1999.90;999.90;;;3.90;99.90;;;;;;5013646;28;20475;-72
2022/01/05 08:40:24;;;;;;;1999.90;999.90;;;4.00;99.90;;;;;;5013750;28;20492;-72
2022/01/05 08:42:52;;;;;;;1999.90;999.90;;;4.00;99.90;;;;;;5013552;28;20520;-72
2022/01/05 08:45:19;;;;;;;1999.90;999.90;;;4.00;99.90;;;;;;5014078;28;20468;-71
2022/01/05 08:47:48;;;;;;;1999.90;999.90;;;4.10;99.90;;;;;;5012828;28;20518;-72
2022/01/05 08:50:16;;;;;;;1999.90;999.90;;;4.20;99.90;;;;;;5009407;28;21003;-72
2022/01/05 08:52:43;;;;;;;1999.90;999.90;;;4.20;99.90;;;;;;5013717;28;20503;-72
2022/01/05 08:55:11;;;;;;;1999.90;999.90;;;4.20;99.90;;;;;;5013950;28;20468;-72
2022/01/05 08:57:40;;;;;;;1999.90;999.90;;;4.30;99.90;;;;;;5013750;28;20460;-72
2022/01/05 09:00:08;;;;;;;1999.90;999.90;;;4.20;99.90;;;;;;5013368;28;20538;-72
2022/01/05 09:02:35;;;;;;;1999.90;999.90;;;4.20;99.90;;;;;;5013822;28;20444;-72
2022/01/05 09:05:01;;;;;;;1999.90;999.90;;;4.30;99.90;;;;;;5013578;28;20472;-72
2022/01/05 09:07:28;;;;;;;1999.90;999.90;;;4.30;99.90;;;;;;5013405;28;20899;-72
2022/01/05 09:09:55;;;;;;;1999.90;999.90;;;4.30;99.90;;;;;;5013068;28;20944;-72
2022/01/05 09:12:22;;;;;;;1999.90;999.90;;;4.30;99.90;;;;;;5013383;28;20459;-72
2022/01/05 09:14:50;;;;;;;1999.90;999.90;;;4.40;99.90;;;;;;5012509;28;20477;-72
2022/01/05 09:17:17;;;;;;;1999.90;999.90;;;4.40;99.90;;;;;;5012672;28;20452;-69
2022/01/05 09:19:43;;;;;;;1999.90;999.90;;;4.40;99.90;;;;;;5013108;28;21065;-73
2022/01/05 09:22:10;;;;;;;1999.90;999.90;;;4.40;99.90;;;;;;5013001;28;20507;-72
2022/01/05 09:24:39;;;;;;;1999.90;999.90;;;4.40;99.90;;;;;;5013136;28;20542;-72
2022/01/05 09:27:06;;;;;;;1999.90;999.90;;;4.50;99.90;;;;;;5013089;28;20535;-72
2022/01/05 09:29:34;;;;;;;1999.90;999.90;;;4.60;99.90;;;;;;5012167;28;20452;-71
2022/01/05 09:32:06;;;;;;;1999.90;999.90;;;4.60;99.90;;;;;;5012323;28;20494;-72
2022/01/05 09:34:34;;;;;;;1999.90;999.90;;;4.60;99.90;;;;;;5011117;28;20499;-70
2022/01/05 09:37:06;;;;;;;1999.90;999.90;;;4.70;99.90;;;;;;5012907;28;20505;-74
2022/01/05 09:42:17;;;;;;;1999.90;999.90;;;4.60;99.90;;;;;;5012451;28;20443;-72
2022/01/05 09:44:45;;;;;;;1999.90;999.90;;;4.60;99.90;;;;;;4993530;28;20471;-72
2022/01/05 09:47:33;;;;;;;1999.90;999.90;;;4.60;99.90;;;;;;5012826;28;20945;-72
2022/01/05 09:50:03;;;;;;;1999.90;999.90;;;4.60;99.90;;;;;;5012693;28;20502;-71
2022/01/05 09:52:31;;;;;;;1999.90;999.90;;;4.70;99.90;;;;;;5012895;28;20554;-73
2022/01/05 09:54:58;;;;;;;1999.90;999.90;;;4.70;99.90;;;;;;5012679;28;20468;-72
2022/01/05 09:57:25;;;;;;;1999.90;999.90;;;4.70;99.90;;;;;;5012005;28;20460;-72
2022/01/05 09:59:53;;;;;;;1999.90;999.90;;;4.70;99.90;;;;;;5011957;28;21201;-69
2022/01/05 10:02:21;;;;;;;1999.90;999.90;;;4.70;99.90;;;;;;5012415;28;20448;-72
2022/01/05 10:04:48;;;;;;;1999.90;999.90;;;4.80;99.90;;;;;;5011856;28;20480;-72
2022/01/05 10:07:15;;;;;;;1999.90;999.90;;;4.70;99.90;;;;;;5013519;28;20448;-73
2022/01/05 10:09:43;;;;;;;1999.90;999.90;;;4.70;99.90;;;;;;5015045;28;20452;-71
2022/01/05 10:12:13;;;;;;;1999.90;999.90;;;4.60;99.90;;;;;;5012922;28;20451;-72
2022/01/05 10:14:40;;;;;;;1999.90;999.90;;;4.50;99.90;;;;;;5012145;28;20479;-74
2022/01/05 10:17:09;;;;;;;1999.90;999.90;;;4.60;99.90;;;;;;5012643;28;20444;-72
2022/01/05 10:19:38;;;;;;;1999.90;999.90;;;4.60;99.90;;;;;;5012185;28;20940;-73
2022/01/05 10:22:26;;;;;;;1999.90;999.90;;;4.50;99.90;;;;;;5011711;28;20455;-72
2022/01/05 10:24:54;;;;;;;1999.90;999.90;;;4.60;99.90;;;;;;5012257;28;20562;-72
2022/01/05 10:27:22;;;;;;;1999.90;999.90;;;4.60;99.90;;;;;;5011606;28;20914;-72
2022/01/05 10:29:58;;;;;;;1999.90;999.90;;;4.70;99.90;;;;;;5011816;28;20502;-74
2022/01/05 10:32:25;;;;;;;1999.90;999.90;;;4.60;99.90;;;;;;5010643;28;20460;-72
2022/01/05 10:35:09;;;;;;;1999.90;999.90;;;4.60;99.90;;;;;;5012205;28;20472;-71
2022/01/05 10:37:38;;;;;;;1999.90;999.90;;;4.60;99.90;;;;;;5012401;28;20432;-72
2022/01/05 10:40:17;;;;;;;1999.90;999.90;;;4.60;99.90;;;;;;5012168;28;20480;-72
2022/01/05 10:42:44;;;;;;;1999.90;999.90;;;4.60;99.90;;;;;;5012506;28;20439;-74
2022/01/05 10:45:13;;;;;;;1999.90;999.90;;;4.60;99.90;;;;;;5011913;28;20472;-71
2022/01/05 10:47:40;;;;;;;1999.90;999.90;;;4.60;99.90;;;;;;5012319;28;20483;-72
2022/01/05 10:50:19;;;;;;;1999.90;999.90;;;4.60;99.90;;;;;;5011754;28;20448;-72
2022/01/05 10:52:54;;;;;;;1999.90;999.90;;;4.70;99.90;;;;;;5011559;28;20447;-71
2022/01/05 10:55:24;;;;;;;1999.90;999.90;;;4.80;99.90;;;;;;5011556;28;20467;-71
2022/01/05 10:58:02;;;;;;;1999.90;999.90;;;4.90;99.90;;;;;;5012062;28;20502;-73
2022/01/05 11:00:35;;;;;;;1999.90;999.90;;;5.00;99.90;;;;;;5011395;28;20570;-72
2022/01/05 11:03:02;;;;;;;1999.90;999.90;;;4.90;99.90;;;;;;5014310;28;20448;-71
2022/01/05 11:05:30;;;;;;;1999.90;999.90;;;4.80;99.90;;;;;;5013988;28;20514;-71
2022/01/05 11:08:07;;;;;;;1999.90;999.90;;;4.90;99.90;;;;;;5011822;28;20990;-72
2022/01/05 11:10:34;;;;;;;1999.90;999.90;;;4.90;99.90;;;;;;5011536;28;20514;-72
2022/01/05 11:13:01;;;;;;;1999.90;999.90;;;5.10;99.90;;;;;;5011461;28;20552;-71
2022/01/05 11:15:31;;;;;;;1999.90;999.90;;;5.20;99.90;;;;;;5011677;28;20554;-72
2022/01/05 11:18:12;;;;;;;1999.90;999.90;;;5.00;99.90;;;;;;5014710;28;20448;-72
2022/01/05 11:20:43;;;;;;;1999.90;999.90;;;4.90;99.90;;;;;;5015088;28;20526;-69
2022/01/05 11:23:11;;;;;;;1999.90;999.90;;;4.80;99.90;;;;;;5015636;28;20455;-72
2022/01/05 11:25:39;;;;;;;1999.90;999.90;;;4.90;99.90;;;;;;5015447;28;20464;-71
2022/01/05 11:28:07;;;;;;;1999.90;999.90;;;5.00;99.90;;;;;;5015113;28;20448;-72
2022/01/05 11:30:35;;;;;;;1999.90;999.90;;;5.00;99.90;;;;;;5014938;28;20483;-71
2022/01/05 11:33:02;;;;;;;1999.90;999.90;;;5.00;99.90;;;;;;5015379;28;20452;-72
2022/01/05 11:35:29;;;;;;;1999.90;999.90;;;4.90;99.90;;;;;;5015324;28;20471;-72
2022/01/05 11:37:57;;;;;;;1999.90;999.90;;;4.80;99.90;;;;;;5015392;28;20462;-71
2022/01/05 11:40:24;;;;;;;1999.90;999.90;;;4.70;99.90;;;;;;5015019;28;20480;-73
2022/01/05 11:42:57;;;;;;;1999.90;999.90;;;4.80;99.90;;;;;;5015788;28;20443;-72
2022/01/05 11:45:33;;;;;;;1999.90;999.90;;;4.90;99.90;;;;;;5015142;28;20464;-72
2022/01/05 11:48:26;;;;;;;1999.90;999.90;;;4.70;99.90;;;;;;5015277;28;20493;-72
2022/01/05 11:50:56;;;;;;;1999.90;999.90;;;4.40;99.90;;;;;;5014552;28;20440;-72
2022/01/05 11:53:41;;;;;;;1999.90;999.90;;;4.20;99.90;;;;;;5014161;28;20452;-73
2022/01/05 11:56:17;;;;;;;1999.90;999.90;;;4.10;99.90;;;;;;5014716;28;20444;-72
2022/01/05 11:58:56;;;;;;;1999.90;999.90;;;4.10;99.90;;;;;;5031175;28;20509;-72
2022/01/05 12:01:26;;;;;;;1999.90;999.90;;;3.90;99.90;;;;;;5018153;28;21087;-72
2022/01/05 12:04:11;;;;;;;1999.90;999.90;;;3.90;99.90;;;;;;5015095;28;20479;-72
2022/01/05 12:07:09;;;;;;;1999.90;999.90;;;3.90;99.90;;;;;;5014887;28;20483;-72
2022/01/05 12:09:41;;;;;;;1999.90;999.90;;;4.10;99.90;;;;;;5014099;28;20444;-71
2022/01/05 12:12:32;;;;;;;1999.90;999.90;;;4.10;99.90;;;;;;5014708;28;20471;-73
2022/01/05 12:15:00;;;;;;;1999.90;999.90;;;4.10;99.90;;;;;;5014439;28;20479;-72
2022/01/05 12:17:28;;;;;;;1999.90;999.90;;;4.20;99.90;;;;;;5014723;28;20519;-72